Time;durP1;ratioP1;P1;durP2;ratioP2;P2;SDS_P1;SDS_P2;PMS_P1;PMS_P2;Temp;Humidity;BMP_temperature;BMP_pressure;BME280_temperature;BME280_humidity;BME280_pressure;Samples;Min_cycle;Max_cycle;Signal;HPM_P1;HPM_P2
2022/04/27 00:00:02;;;;;;;7.97;6.15;;;8.00;36.00;;;;;;4968244;28;34219;-77
2022/04/27 00:02:30;;;;;;;8.35;6.43;;;7.90;36.00;;;;;;4968944;28;34550;-77
2022/04/27 00:04:57;;;;;;;6.97;5.30;;;7.90;36.10;;;;;;4968120;28;34124;-78
2022/04/27 00:07:23;;;;;;;7.60;6.07;;;7.90;36.20;;;;;;4968606;28;34123;-78
2022/04/27 00:09:49;;;;;;;9.40;6.40;;;7.70;36.20;;;;;;4968229;28;34166;-78
2022/04/27 00:12:15;;;;;;;9.20;6.32;;;7.70;36.30;;;;;;4967796;28;35847;-78
2022/04/27 00:14:41;;;;;;;7.80;6.07;;;7.70;36.40;;;;;;4984036;28;34311;-78
2022/04/27 00:17:07;;;;;;;10.80;6.35;;;7.70;36.40;;;;;;4984815;28;34069;-78
2022/04/27 00:19:33;;;;;;;8.75;6.68;;;7.70;36.50;;;;;;4962954;28;34480;-77
2022/04/27 00:21:58;;;;;;;8.88;6.60;;;7.60;36.40;;;;;;4964951;28;35803;-77
2022/04/27 00:24:24;;;;;;;8.75;6.20;;;7.50;36.40;;;;;;4968142;28;33989;-77
2022/04/27 00:26:51;;;;;;;10.73;7.13;;;7.50;36.40;;;;;;4951794;28;34123;-78
2022/04/27 00:29:17;;;;;;;8.15;6.13;;;7.40;36.30;;;;;;4968023;28;34334;-77
2022/04/27 00:31:43;;;;;;;9.93;5.80;;;7.40;36.40;;;;;;4984722;28;34406;-77
2022/04/27 00:34:09;;;;;;;7.85;6.35;;;7.30;36.50;;;;;;4984098;28;34415;-77
2022/04/27 00:36:35;;;;;;;8.80;6.75;;;7.20;36.60;;;;;;4985136;28;34365;-77
2022/04/27 00:39:02;;;;;;;6.90;5.53;;;7.20;36.60;;;;;;4967783;28;34366;-77
2022/04/27 00:41:28;;;;;;;9.85;6.40;;;7.10;36.70;;;;;;4985086;28;34409;-78
2022/04/27 00:43:54;;;;;;;7.40;6.38;;;7.00;36.80;;;;;;4967697;28;34078;-77
2022/04/27 00:46:21;;;;;;;11.40;6.32;;;7.00;36.90;;;;;;4967669;28;34103;-77
2022/04/27 00:48:47;;;;;;;8.25;5.90;;;6.90;36.90;;;;;;4967758;28;34438;-77
2022/04/27 00:51:16;;;;;;;8.38;6.30;;;6.90;36.90;;;;;;4967501;28;35803;-77
2022/04/27 00:53:43;;;;;;;7.78;5.90;;;6.90;37.10;;;;;;4967800;28;34007;-77
2022/04/27 00:56:10;;;;;;;10.07;6.82;;;6.80;36.90;;;;;;4967220;28;34275;-77
2022/04/27 00:58:36;;;;;;;9.73;6.75;;;6.80;36.90;;;;;;4984851;28;34213;-77
2022/04/27 01:01:02;;;;;;;8.43;6.80;;;6.70;37.00;;;;;;4984581;28;34391;-78
2022/04/27 01:03:28;;;;;;;9.90;6.72;;;6.70;37.10;;;;;;4967178;28;34395;-78
2022/04/27 01:05:57;;;;;;;8.68;6.22;;;6.60;37.10;;;;;;4983704;28;34218;-77
2022/04/27 01:08:23;;;;;;;9.35;6.63;;;6.60;37.20;;;;;;4983833;28;33984;-77
2022/04/27 01:10:50;;;;;;;8.48;6.25;;;6.60;37.20;;;;;;4983464;28;35851;-77
2022/04/27 01:13:16;;;;;;;8.20;6.35;;;6.60;37.00;;;;;;4950888;28;34063;-77
2022/04/27 01:15:43;;;;;;;6.57;5.55;;;6.50;37.10;;;;;;4967210;28;34203;-77
2022/04/27 01:18:09;;;;;;;7.05;5.65;;;6.50;37.00;;;;;;4966592;28;34225;-77
2022/04/27 01:20:37;;;;;;;8.00;5.40;;;6.40;36.90;;;;;;4983004;28;36037;-77
2022/04/27 01:23:04;;;;;;;7.40;5.45;;;6.40;36.90;;;;;;4983511;28;34079;-77
2022/04/27 01:25:48;;;;;;;7.70;5.63;;;6.30;36.90;;;;;;4951311;28;34220;-77
2022/04/27 01:28:16;;;;;;;7.30;5.60;;;6.30;38.10;;;;;;4966631;28;34130;-77
2022/04/27 01:30:44;;;;;;;7.68;5.57;;;6.20;37.00;;;;;;4951028;28;35676;-77
2022/04/27 01:33:11;;;;;;;9.63;6.50;;;6.10;36.90;;;;;;4966858;28;34171;-77
2022/04/27 01:35:37;;;;;;;6.68;5.65;;;6.00;37.00;;;;;;4966920;28;34305;-77
2022/04/27 01:38:03;;;;;;;10.15;6.38;;;6.00;37.10;;;;;;4951115;28;34181;-77
2022/04/27 01:40:30;;;;;;;8.48;6.20;;;6.00;37.20;;;;;;4973137;28;34317;-77
2022/04/27 01:42:56;;;;;;;7.45;5.93;;;5.90;37.40;;;;;;4963353;28;34316;-78
2022/04/27 01:45:22;;;;;;;8.05;6.28;;;5.90;37.40;;;;;;4983346;28;34213;-77
2022/04/27 01:47:48;;;;;;;8.73;6.18;;;5.80;37.30;;;;;;4967009;28;34622;-77
2022/04/27 01:50:14;;;;;;;7.35;5.57;;;5.80;37.90;;;;;;4966670;28;34382;-77
2022/04/27 01:55:21;;;;;;;7.50;5.75;;;5.70;37.30;;;;;;4968369;28;33700;-77
2022/04/27 01:57:48;;;;;;;8.45;6.45;;;5.60;37.50;;;;;;4967238;28;34160;-77
2022/04/27 02:00:15;;;;;;;8.20;6.28;;;5.60;37.50;;;;;;4966254;28;35937;-77
2022/04/27 02:02:41;;;;;;;8.30;5.78;;;5.50;38.00;;;;;;4966505;28;34329;-77
2022/04/27 02:05:08;;;;;;;9.45;6.25;;;5.60;38.00;;;;;;4966256;28;34034;-77
2022/04/27 02:07:33;;;;;;;9.18;6.28;;;5.50;37.80;;;;;;4982879;28;34078;-77
2022/04/27 02:09:59;;;;;;;8.15;6.00;;;5.40;37.80;;;;;;4965835;28;35655;-77
2022/04/27 02:12:25;;;;;;;10.80;6.80;;;5.40;37.80;;;;;;4982689;28;33972;-77
2022/04/27 02:14:51;;;;;;;6.90;5.85;;;5.40;37.90;;;;;;4966117;28;34115;-77
2022/04/27 02:17:17;;;;;;;8.05;5.95;;;5.40;37.90;;;;;;4966100;28;34345;-77
2022/04/27 02:19:43;;;;;;;9.88;5.68;;;5.30;38.00;;;;;;4982553;28;35771;-77
2022/04/27 02:22:09;;;;;;;8.73;6.45;;;5.30;37.80;;;;;;4982541;28;34304;-77
2022/04/27 02:24:35;;;;;;;8.90;6.45;;;5.30;37.80;;;;;;4982462;28;34379;-77
2022/04/27 02:27:01;;;;;;;8.88;6.88;;;5.30;37.80;;;;;;4965929;28;34388;-77
2022/04/27 02:29:28;;;;;;;9.82;6.72;;;5.30;38.00;;;;;;4952411;28;36592;-77
2022/04/27 02:31:54;;;;;;;10.90;7.18;;;5.30;38.00;;;;;;4986200;28;34000;-77
2022/04/27 02:34:19;;;;;;;7.80;6.22;;;5.20;37.80;;;;;;4969506;28;34001;-77
2022/04/27 02:36:45;;;;;;;8.50;6.15;;;5.20;38.00;;;;;;4986896;28;34034;-77
2022/04/27 02:39:11;;;;;;;9.57;6.40;;;5.20;37.80;;;;;;4968889;28;35785;-77
2022/04/27 02:41:37;;;;;;;9.93;5.85;;;5.10;37.80;;;;;;4985803;28;34456;-77
2022/04/27 02:44:03;;;;;;;9.07;6.32;;;5.00;37.80;;;;;;4966689;28;34271;-77
2022/04/27 02:46:29;;;;;;;9.07;6.47;;;5.00;38.00;;;;;;4966541;28;34155;-77
2022/04/27 02:54:20;;;;;;;11.90;5.68;;;4.90;38.10;;;;;;4967502;28;34055;-77
2022/04/27 02:56:46;;;;;;;9.05;5.15;;;4.90;38.10;;;;;;4982143;28;33966;-77
2022/04/27 02:59:12;;;;;;;8.38;6.40;;;4.90;38.00;;;;;;4965823;28;35812;-77
2022/04/27 03:01:39;;;;;;;8.38;6.38;;;4.90;38.10;;;;;;4969100;28;34236;-77
2022/04/27 03:04:06;;;;;;;8.25;5.82;;;4.90;38.00;;;;;;4986346;28;34180;-77
2022/04/27 03:06:32;;;;;;;9.45;7.07;;;4.80;38.10;;;;;;4986256;28;34067;-76
2022/04/27 03:08:58;;;;;;;8.98;6.15;;;4.80;38.00;;;;;;4986069;28;34077;-77
2022/04/27 03:11:24;;;;;;;8.35;6.25;;;4.80;38.00;;;;;;4968640;28;34330;-77
2022/04/27 03:13:50;;;;;;;8.98;6.45;;;4.70;38.10;;;;;;4969034;28;34196;-77
2022/04/27 03:16:16;;;;;;;8.50;6.53;;;4.70;38.10;;;;;;4985985;28;34115;-77
2022/04/27 03:18:42;;;;;;;8.13;6.45;;;4.70;38.10;;;;;;4985677;28;35097;-77
2022/04/27 03:21:09;;;;;;;9.85;6.30;;;4.60;38.10;;;;;;4968652;28;36024;-77
2022/04/27 03:23:35;;;;;;;8.45;6.38;;;4.70;38.20;;;;;;4986191;28;34444;-77
2022/04/27 03:26:02;;;;;;;11.93;6.85;;;4.70;38.10;;;;;;4964996;28;34482;-77
2022/04/27 03:28:28;;;;;;;8.55;6.63;;;4.60;37.90;;;;;;4949506;28;35494;-77
2022/04/27 03:30:54;;;;;;;10.02;7.15;;;4.60;38.10;;;;;;4965466;28;34188;-77
2022/04/27 03:33:20;;;;;;;8.90;6.40;;;4.60;37.90;;;;;;4984680;28;34230;-77
2022/04/27 03:35:47;;;;;;;9.23;6.45;;;4.60;38.10;;;;;;4968524;28;34137;-77
2022/04/27 03:38:15;;;;;;;9.13;6.55;;;4.50;38.10;;;;;;4968310;28;35496;-77
2022/04/27 03:40:41;;;;;;;8.30;6.30;;;4.50;38.40;;;;;;4967772;28;34181;-77
2022/04/27 03:43:08;;;;;;;8.15;6.22;;;4.50;38.40;;;;;;4968521;28;34108;-77
2022/04/27 03:45:35;;;;;;;10.65;6.25;;;4.50;38.20;;;;;;4986037;28;34056;-77
2022/04/27 03:48:01;;;;;;;9.07;6.45;;;4.40;38.10;;;;;;4984011;28;35721;-77
2022/04/27 03:50:27;;;;;;;8.95;6.55;;;4.40;38.10;;;;;;4967986;28;34154;-77
2022/04/27 03:52:54;;;;;;;8.00;6.10;;;4.40;38.10;;;;;;4952356;28;34293;-77
2022/04/27 03:55:20;;;;;;;9.27;6.90;;;4.40;38.30;;;;;;4984342;28;34542;-77
2022/04/27 03:57:46;;;;;;;8.13;6.45;;;4.40;38.40;;;;;;4964023;28;36208;-77
2022/04/27 04:00:12;;;;;;;10.88;7.85;;;4.40;38.20;;;;;;4948532;28;34404;-76
2022/04/27 04:02:39;;;;;;;8.90;6.40;;;4.40;38.20;;;;;;4949028;28;34064;-77
2022/04/27 04:05:05;;;;;;;9.48;6.60;;;4.40;38.40;;;;;;4948896;28;34056;-77
2022/04/27 04:07:32;;;;;;;9.27;6.50;;;4.40;38.40;;;;;;4966984;28;36122;-77
2022/04/27 04:09:58;;;;;;;12.18;7.03;;;4.40;38.50;;;;;;4968626;28;34274;-77
2022/04/27 04:12:24;;;;;;;14.23;6.95;;;4.40;38.50;;;;;;4984226;28;34262;-77
2022/04/27 04:14:50;;;;;;;10.38;7.28;;;4.40;38.50;;;;;;4967838;28;34232;-77
2022/04/27 04:17:17;;;;;;;10.05;7.07;;;4.40;38.50;;;;;;4984671;28;35188;-77
2022/04/27 04:19:43;;;;;;;10.35;6.72;;;4.40;38.50;;;;;;4968161;28;34132;-77
2022/04/27 04:22:10;;;;;;;11.85;7.25;;;4.40;38.20;;;;;;4967794;28;34161;-77
2022/04/27 04:24:36;;;;;;;9.82;6.97;;;4.40;38.20;;;;;;4967978;28;34156;-77
2022/04/27 04:29:44;;;;;;;10.10;6.68;;;4.40;38.10;;;;;;4969660;28;34370;-77
2022/04/27 04:32:10;;;;;;;15.30;7.00;;;4.30;38.20;;;;;;4967394;28;34292;-77
2022/04/27 04:34:36;;;;;;;9.80;7.03;;;4.30;38.30;;;;;;4985094;28;33981;-77
2022/04/27 04:37:02;;;;;;;9.52;6.82;;;4.30;38.40;;;;;;4966916;28;36117;-77
2022/04/27 04:39:28;;;;;;;9.70;6.57;;;4.30;38.40;;;;;;4968012;28;34185;-77
2022/04/27 04:41:54;;;;;;;8.75;6.07;;;4.20;38.40;;;;;;4984833;28;34333;-77
2022/04/27 04:44:20;;;;;;;9.57;6.88;;;4.20;38.40;;;;;;4967648;28;34208;-77
2022/04/27 04:46:46;;;;;;;9.27;6.50;;;4.20;38.30;;;;;;4967175;28;36578;-77
2022/04/27 04:49:12;;;;;;;12.98;7.35;;;4.20;38.30;;;;;;4984125;28;34349;-77
2022/04/27 04:51:38;;;;;;;9.93;7.20;;;4.20;38.20;;;;;;4966611;28;34168;-77
2022/04/27 04:54:04;;;;;;;9.45;7.03;;;4.30;38.20;;;;;;4984508;28;34114;-77
2022/04/27 04:56:30;;;;;;;10.15;7.05;;;4.30;38.30;;;;;;4983198;28;36746;-77
2022/04/27 04:58:56;;;;;;;8.25;6.25;;;4.30;38.40;;;;;;4967250;28;34053;-77
2022/04/27 05:01:22;;;;;;;10.30;6.75;;;4.30;38.30;;;;;;4966926;28;34223;-77
2022/04/27 05:03:48;;;;;;;9.38;6.32;;;4.30;38.40;;;;;;4951506;28;34465;-77
2022/04/27 05:06:14;;;;;;;11.95;7.05;;;4.40;38.30;;;;;;4967001;28;35656;-77
2022/04/27 05:08:40;;;;;;;10.93;6.78;;;4.40;38.40;;;;;;4966020;28;34338;-77
2022/04/27 05:11:06;;;;;;;11.32;7.03;;;4.50;38.30;;;;;;4947222;28;34173;-77
2022/04/27 05:13:37;;;;;;;9.82;6.80;;;4.60;38.40;;;;;;4947735;28;33910;-77
2022/04/27 05:16:04;;;;;;;12.60;7.30;;;4.60;38.40;;;;;;4947513;28;36305;-77
2022/04/27 05:18:30;;;;;;;18.10;6.55;;;4.70;38.60;;;;;;4932002;28;34306;-77
2022/04/27 05:20:56;;;;;;;18.00;6.85;;;4.80;38.60;;;;;;4947595;28;34235;-77
2022/04/27 05:23:22;;;;;;;9.10;6.43;;;4.90;38.70;;;;;;4935469;28;34028;-77
2022/04/27 05:25:48;;;;;;;11.82;6.20;;;5.00;38.60;;;;;;4947502;28;35870;-76
2022/04/27 05:28:14;;;;;;;13.43;6.63;;;5.10;38.70;;;;;;4915882;28;34029;-76
2022/04/27 05:33:23;;;;;;;12.43;6.35;;;5.40;38.60;;;;;;4936066;28;34441;-76
2022/04/27 05:35:50;;;;;;;14.30;6.68;;;5.50;38.60;;;;;;4948002;28;35272;-77
2022/04/27 05:38:16;;;;;;;19.35;6.88;;;5.60;38.30;;;;;;4947169;28;34291;-77
2022/04/27 05:40:43;;;;;;;12.13;6.47;;;5.60;38.10;;;;;;4931134;28;34269;-77
2022/04/27 05:43:10;;;;;;;17.05;6.25;;;5.80;38.20;;;;;;4947647;28;34659;-77
2022/04/27 05:45:36;;;;;;;17.27;6.45;;;5.90;38.90;;;;;;4947228;28;35589;-77
2022/04/27 05:48:03;;;;;;;14.70;6.82;;;5.90;38.10;;;;;;4931035;28;34147;-77
2022/04/27 05:50:28;;;;;;;11.75;7.25;;;6.00;37.90;;;;;;4983099;28;34424;-77
2022/04/27 05:52:56;;;;;;;10.25;7.10;;;6.10;38.10;;;;;;4983154;28;34010;-77
2022/04/27 05:55:23;;;;;;;9.52;7.00;;;6.20;38.30;;;;;;4982358;28;35800;-77
2022/04/27 05:57:49;;;;;;;9.90;7.25;;;6.40;38.20;;;;;;4984149;28;34391;-77
2022/04/27 06:00:16;;;;;;;15.45;8.02;;;6.50;38.10;;;;;;4983907;28;34141;-77
2022/04/27 06:02:43;;;;;;;12.77;7.30;;;6.70;38.20;;;;;;4947358;28;34401;-77
2022/04/27 06:05:09;;;;;;;11.55;7.43;;;6.90;38.10;;;;;;4967939;28;34516;-77
2022/04/27 06:07:36;;;;;;;13.10;6.88;;;7.00;38.10;;;;;;4970013;28;34178;-77
2022/04/27 06:10:04;;;;;;;8.07;7.15;;;7.20;38.00;;;;;;4985046;28;34491;-77
2022/04/27 06:12:35;;;;;;;9.73;8.02;;;7.40;37.90;;;;;;4987530;28;34364;-77
2022/04/27 06:15:03;;;;;;;12.43;7.57;;;7.60;37.60;;;;;;4966807;28;35879;-78
2022/04/27 06:17:33;;;;;;;11.35;6.22;;;7.70;37.50;;;;;;4935510;28;34114;-77
2022/04/27 06:19:59;;;;;;;7.43;6.32;;;7.80;36.80;;;;;;4950754;28;34305;-77
2022/04/27 06:22:25;;;;;;;13.30;6.47;;;7.80;36.60;;;;;;4951096;28;34013;-77
2022/04/27 06:24:51;;;;;;;12.75;6.40;;;8.00;36.90;;;;;;4956288;28;35927;-77
2022/04/27 06:27:35;;;;;;;9.70;6.47;;;8.30;36.70;;;;;;4953422;28;34147;-78
2022/04/27 06:30:02;;;;;;;7.13;6.22;;;8.60;38.30;;;;;;4969342;28;34272;-78
2022/04/27 06:32:32;;;;;;;10.85;7.47;;;8.80;35.80;;;;;;4952849;28;34200;-78
2022/04/27 06:34:59;;;;;;;8.50;6.45;;;9.10;35.80;;;;;;4966053;28;35643;-78
2022/04/27 06:37:26;;;;;;;9.88;7.13;;;9.30;35.00;;;;;;4986010;28;34112;-77
2022/04/27 06:39:52;;;;;;;8.55;6.57;;;9.60;34.30;;;;;;4987828;28;34031;-78
2022/04/27 06:42:22;;;;;;;10.32;7.03;;;10.00;33.80;;;;;;4986202;28;34091;-78
2022/04/27 06:44:48;;;;;;;10.05;7.68;;;10.40;33.10;;;;;;4969623;28;35830;-79
2022/04/27 06:47:14;;;;;;;9.85;7.57;;;10.80;32.00;;;;;;4985344;28;34138;-78
2022/04/27 06:49:40;;;;;;;9.32;6.90;;;11.20;31.70;;;;;;4969593;28;33985;-78
2022/04/27 06:52:06;;;;;;;8.57;6.85;;;11.70;31.50;;;;;;4969099;28;34517;-77
2022/04/27 06:54:32;;;;;;;9.13;7.30;;;12.10;30.10;;;;;;4969070;28;35586;-77
2022/04/27 06:56:59;;;;;;;9.85;8.25;;;12.40;29.10;;;;;;4987116;28;34173;-78
2022/04/27 06:59:25;;;;;;;8.82;7.15;;;12.70;28.80;;;;;;4969657;28;34298;-78
2022/04/27 07:01:53;;;;;;;9.82;7.50;;;13.10;28.20;;;;;;4969658;28;34224;-78
2022/04/27 07:04:20;;;;;;;12.65;7.78;;;13.40;27.40;;;;;;4969467;28;35913;-78
2022/04/27 07:06:46;;;;;;;10.38;8.10;;;13.70;27.10;;;;;;4987477;28;34055;-77
2022/04/27 07:09:12;;;;;;;11.70;8.20;;;14.10;27.00;;;;;;4986378;28;33957;-77
2022/04/27 07:11:40;;;;;;;9.30;7.57;;;14.50;26.30;;;;;;4962647;28;34049;-77
2022/04/27 07:14:06;;;;;;;9.27;7.68;;;14.80;25.80;;;;;;4965088;28;36310;-77
2022/04/27 07:16:32;;;;;;;11.50;8.27;;;14.80;25.40;;;;;;4968519;28;34379;-77
2022/04/27 07:18:58;;;;;;;12.43;8.80;;;14.90;25.80;;;;;;4969386;28;34201;-77
2022/04/27 07:21:24;;;;;;;12.60;9.05;;;15.00;25.00;;;;;;4985889;28;34781;-77
2022/04/27 07:23:50;;;;;;;15.02;9.45;;;15.00;25.00;;;;;;4986830;28;34416;-77
2022/04/27 07:26:16;;;;;;;11.57;9.15;;;15.10;25.10;;;;;;4986791;28;34149;-78
2022/04/27 07:28:42;;;;;;;12.60;9.30;;;15.30;25.40;;;;;;4980396;28;34103;-78
2022/04/27 07:31:09;;;;;;;11.30;9.15;;;15.40;25.60;;;;;;4966361;28;34120;-78
2022/04/27 07:33:35;;;;;;;10.50;8.88;;;15.60;25.70;;;;;;4983779;28;34204;-78
2022/04/27 07:36:01;;;;;;;11.98;8.85;;;15.60;25.70;;;;;;4986543;28;34119;-78
2022/04/27 07:38:27;;;;;;;13.15;9.63;;;15.60;25.90;;;;;;4969451;28;34127;-77
2022/04/27 07:40:53;;;;;;;12.25;9.38;;;15.80;26.00;;;;;;4968849;28;34442;-78
2022/04/27 07:43:19;;;;;;;13.27;9.85;;;15.90;26.00;;;;;;4986234;28;34247;-78
2022/04/27 07:45:45;;;;;;;13.13;9.10;;;16.00;26.10;;;;;;4986200;28;34280;-78
2022/04/27 07:48:11;;;;;;;13.23;9.10;;;16.00;25.90;;;;;;4967990;28;34179;-79
2022/04/27 07:50:38;;;;;;;14.30;9.00;;;16.10;25.80;;;;;;4957652;28;34087;-78
2022/04/27 07:53:04;;;;;;;12.05;9.20;;;16.30;25.50;;;;;;4957865;28;36469;-78
2022/04/27 07:55:29;;;;;;;12.30;9.77;;;16.40;25.30;;;;;;4952820;28;34562;-78
2022/04/27 07:57:56;;;;;;;11.90;9.77;;;16.40;25.20;;;;;;4985811;28;34165;-79
2022/04/27 08:00:22;;;;;;;16.58;10.27;;;16.40;25.20;;;;;;4968899;28;34562;-78
2022/04/27 08:02:48;;;;;;;13.02;10.13;;;16.50;25.00;;;;;;4984871;28;36851;-78
2022/04/27 08:05:15;;;;;;;14.38;10.48;;;16.70;25.00;;;;;;4984802;28;34083;-78
2022/04/27 08:07:45;;;;;;;13.45;9.93;;;16.80;24.50;;;;;;4952358;28;34198;-78
2022/04/27 08:10:15;;;;;;;15.32;10.55;;;16.90;24.30;;;;;;4968804;28;34579;-78
2022/04/27 08:12:43;;;;;;;13.18;10.48;;;17.00;24.70;;;;;;4982451;28;36449;-77
2022/04/27 08:15:10;;;;;;;14.27;10.57;;;17.20;24.10;;;;;;4969068;28;34335;-78
2022/04/27 08:17:49;;;;;;;15.55;11.40;;;17.40;23.80;;;;;;4970415;28;34238;-79
2022/04/27 08:22:56;;;;;;;16.08;10.13;;;17.80;23.40;;;;;;4986600;28;34182;-78
2022/04/27 08:25:22;;;;;;;13.32;9.45;;;18.00;23.10;;;;;;4968790;28;34213;-78
2022/04/27 08:27:48;;;;;;;14.30;10.82;;;18.10;22.40;;;;;;4950966;28;34254;-78
2022/04/27 08:30:14;;;;;;;19.48;11.32;;;18.10;22.10;;;;;;4945108;28;34222;-78
2022/04/27 08:32:41;;;;;;;14.05;10.68;;;18.30;21.90;;;;;;4954979;28;35488;-79
2022/04/27 08:35:07;;;;;;;13.95;10.00;;;18.40;21.60;;;;;;4971274;28;34081;-79
2022/04/27 08:37:33;;;;;;;13.65;9.82;;;18.60;21.60;;;;;;4950082;28;34094;-79
2022/04/27 08:40:01;;;;;;;13.75;10.68;;;18.90;21.40;;;;;;4938497;28;34485;-80
2022/04/27 08:42:27;;;;;;;15.25;10.60;;;19.10;21.00;;;;;;4942718;28;36248;-79
2022/04/27 08:44:53;;;;;;;15.07;10.52;;;19.40;20.70;;;;;;4982811;28;33881;-80
2022/04/27 08:47:19;;;;;;;12.98;10.13;;;19.40;20.20;;;;;;4950403;28;34258;-79
2022/04/27 08:49:45;;;;;;;12.02;9.80;;;19.70;19.90;;;;;;4970475;28;34309;-78
2022/04/27 08:52:12;;;;;;;13.05;10.13;;;19.90;19.80;;;;;;4978455;28;34323;-79
2022/04/27 08:54:39;;;;;;;14.57;9.55;;;19.80;19.10;;;;;;4975561;28;34098;-79
2022/04/27 08:57:06;;;;;;;14.65;9.80;;;20.00;19.30;;;;;;4952368;28;34137;-78
2022/04/27 08:59:32;;;;;;;11.80;9.20;;;19.90;19.10;;;;;;4942091;28;34269;-79
2022/04/27 09:02:17;;;;;;;12.93;9.63;;;19.80;19.10;;;;;;4951120;28;35647;-78
2022/04/27 09:04:43;;;;;;;12.43;9.55;;;19.90;18.00;;;;;;4943945;28;34341;-79
2022/04/27 09:07:17;;;;;;;14.25;10.13;;;19.90;19.40;;;;;;4965906;28;34434;-79
2022/04/27 09:09:43;;;;;;;12.85;9.77;;;20.10;16.40;;;;;;4953362;28;34449;-78
2022/04/27 09:12:14;;;;;;;11.30;8.77;;;20.10;18.50;;;;;;4953800;28;35826;-79
2022/04/27 09:14:40;;;;;;;14.27;9.85;;;20.30;17.30;;;;;;4962356;28;34265;-79
2022/04/27 09:22:55;;;;;;;14.02;8.73;;;20.30;14.60;;;;;;4973539;28;34316;-78
2022/04/27 09:25:37;;;;;;;13.05;8.25;;;20.10;17.80;;;;;;4976069;28;34285;-79
2022/04/27 09:28:04;;;;;;;14.48;9.05;;;19.90;14.80;;;;;;4967160;28;34201;-79
2022/04/27 09:30:36;;;;;;;11.38;8.50;;;19.80;17.70;;;;;;4979333;28;34264;-79
2022/04/27 09:33:02;;;;;;;15.50;8.77;;;19.80;15.40;;;;;;4963233;28;35874;-78
2022/04/27 09:35:34;;;;;;;11.10;8.60;;;19.90;17.50;;;;;;4947705;28;34226;-79
2022/04/27 09:38:17;;;;;;;11.27;8.70;;;20.10;16.10;;;;;;4983726;28;34115;-79
2022/04/27 09:40:47;;;;;;;11.38;8.75;;;20.30;13.90;;;;;;4961609;28;34435;-81
2022/04/27 09:43:15;;;;;;;12.90;8.70;;;20.60;16.50;;;;;;4950106;28;36883;-80
2022/04/27 09:45:43;;;;;;;15.80;8.77;;;20.90;16.50;;;;;;4965487;28;34301;-82
2022/04/27 09:48:18;;;;;;;12.00;8.88;;;21.20;16.00;;;;;;4981346;28;34284;-79
2022/04/27 09:50:50;;;;;;;13.70;9.40;;;21.50;13.40;;;;;;4963752;28;34277;-79
2022/04/27 09:53:18;;;;;;;12.43;8.95;;;21.60;15.40;;;;;;4962856;28;35466;-79
2022/04/27 09:55:47;;;;;;;13.93;8.73;;;21.80;15.40;;;;;;4943891;28;34060;-80
2022/04/27 09:58:15;;;;;;;13.77;8.77;;;22.00;15.10;;;;;;4944705;28;34293;-80
2022/04/27 10:00:43;;;;;;;11.95;8.38;;;22.00;14.80;;;;;;4952929;28;34383;-80
2022/04/27 10:03:18;;;;;;;13.25;8.85;;;22.10;14.80;;;;;;4983643;28;36357;-80
2022/04/27 10:05:45;;;;;;;10.88;8.48;;;22.20;11.50;;;;;;4947002;28;34256;-79
2022/04/27 10:08:12;;;;;;;10.15;7.72;;;22.10;14.40;;;;;;4986856;28;34199;-78
2022/04/27 10:10:39;;;;;;;15.32;8.55;;;22.10;14.40;;;;;;4985064;28;34601;-79
2022/04/27 10:13:11;;;;;;;12.70;8.68;;;22.20;14.10;;;;;;4963393;28;34415;-79
2022/04/27 10:15:41;;;;;;;12.68;9.13;;;22.40;13.00;;;;;;4938563;28;34403;-80
2022/04/27 10:18:11;;;;;;;10.50;8.30;;;22.50;13.80;;;;;;4954831;28;34114;-79
2022/04/27 10:20:37;;;;;;;11.18;7.88;;;22.40;12.70;;;;;;4953345;28;34094;-79
2022/04/27 10:23:20;;;;;;;13.45;8.45;;;22.50;14.00;;;;;;4958303;28;34477;-79
2022/04/27 10:26:17;;;;;;;12.38;8.00;;;22.40;10.50;;;;;;4969408;28;34380;-81
2022/04/27 10:28:54;;;;;;;11.70;7.82;;;22.10;9.40;;;;;;4974905;28;34068;-78
2022/04/27 10:31:55;;;;;;;13.77;8.80;;;22.10;12.60;;;;;;4944882;28;34603;-79
2022/04/27 10:34:23;;;;;;;13.18;8.95;;;21.70;8.40;;;;;;4961453;28;35912;-79
2022/04/27 10:36:53;;;;;;;12.73;8.18;;;21.40;13.50;;;;;;4942978;28;34088;-79
2022/04/27 10:39:22;;;;;;;13.27;8.13;;;21.50;12.60;;;;;;4958598;28;34245;-79
2022/04/27 10:41:56;;;;;;;12.32;8.27;;;21.60;13.40;;;;;;4941683;28;34174;-79
2022/04/27 10:44:58;;;;;;;13.57;7.82;;;21.90;11.80;;;;;;4971022;28;35045;-79
2022/04/27 10:47:25;;;;;;;9.77;6.53;;;22.10;8.60;;;;;;4940515;28;34092;-79
2022/04/27 10:50:18;;;;;;;9.32;6.60;;;22.20;12.60;;;;;;4969963;28;34208;-78
2022/04/27 10:52:51;;;;;;;9.68;7.18;;;22.20;6.60;;;;;;4959611;28;34479;-80
2022/04/27 10:55:42;;;;;;;14.70;7.75;;;22.30;11.80;;;;;;4967009;28;35558;-80
2022/04/27 10:58:42;;;;;;;6.35;4.97;;;22.60;9.10;;;;;;4983562;28;34302;-79
2022/04/27 11:01:19;;;;;;;7.82;5.40;;;22.80;5.30;;;;;;4977586;28;34125;-79
2022/04/27 11:03:54;;;;;;;8.27;5.88;;;22.80;6.10;;;;;;4972738;28;34427;-79
2022/04/27 11:06:21;;;;;;;7.80;5.72;;;22.80;5.00;;;;;;4968949;28;35777;-79
2022/04/27 11:09:08;;;;;;;6.15;5.50;;;22.80;10.80;;;;;;4953698;28;34397;-80
2022/04/27 11:11:55;;;;;;;8.60;5.90;;;22.90;4.00;;;;;;4984757;28;34351;-79
2022/04/27 11:14:27;;;;;;;7.75;5.50;;;22.90;7.90;;;;;;4972045;28;34289;-78
2022/04/27 11:16:53;;;;;;;7.47;5.35;;;23.00;10.20;;;;;;4969872;28;35581;-78
2022/04/27 11:19:19;;;;;;;8.52;4.95;;;23.10;10.50;;;;;;4970985;28;34314;-79
2022/04/27 11:21:46;;;;;;;6.43;4.75;;;23.00;10.00;;;;;;4971944;28;34179;-80
2022/04/27 11:24:14;;;;;;;6.03;4.30;;;22.80;9.80;;;;;;4988909;28;34536;-76
2022/04/27 11:26:43;;;;;;;5.03;3.92;;;22.70;9.70;;;;;;4986093;28;34218;-77
2022/04/27 11:29:11;;;;;;;6.07;4.50;;;22.60;9.10;;;;;;4969879;28;34111;-77
2022/04/27 11:31:38;;;;;;;4.35;3.60;;;22.50;8.40;;;;;;4986483;28;34357;-75
2022/04/27 11:34:21;;;;;;;4.53;4.00;;;22.50;9.10;;;;;;4968761;28;34152;-76
2022/04/27 11:36:47;;;;;;;5.40;4.43;;;22.60;3.00;;;;;;4968653;28;34652;-76
2022/04/27 11:39:20;;;;;;;4.50;3.58;;;22.80;8.60;;;;;;4970058;28;34472;-77
2022/04/27 11:41:45;;;;;;;4.35;3.78;;;23.00;5.40;;;;;;4988080;28;34023;-77
2022/04/27 11:44:21;;;;;;;4.88;3.47;;;23.20;8.40;;;;;;4954440;28;34007;-78
2022/04/27 11:46:48;;;;;;;4.72;3.70;;;23.30;3.80;;;;;;4969371;28;35565;-77
2022/04/27 11:49:14;;;;;;;4.50;3.58;;;23.30;7.70;;;;;;4970694;28;34199;-78
2022/04/27 11:51:46;;;;;;;8.25;4.22;;;23.30;7.60;;;;;;4954699;28;34073;-78
2022/04/27 11:54:26;;;;;;;7.93;4.30;;;23.40;6.20;;;;;;4971529;28;34306;-79
2022/04/27 11:57:03;;;;;;;4.35;3.15;;;23.60;4.20;;;;;;4971202;28;35143;-77
2022/04/27 11:59:45;;;;;;;5.97;3.58;;;23.50;1.70;;;;;;4960388;28;34160;-76
2022/04/27 12:02:11;;;;;;;5.97;3.30;;;23.50;1.00;;;;;;4969955;28;34009;-76
2022/04/27 12:04:37;;;;;;;6.72;3.45;;;23.40;6.70;;;;;;4969181;28;34114;-77
2022/04/27 12:07:21;;;;;;;3.13;2.50;;;23.20;6.50;;;;;;4968630;28;36561;-77
2022/04/27 12:10:04;;;;;;;4.25;3.00;;;23.10;1.00;;;;;;4968753;28;34178;-77
2022/04/27 12:12:32;;;;;;;4.03;3.25;;;22.90;1.00;;;;;;4986859;28;34075;-78
2022/04/27 12:15:05;;;;;;;5.10;3.28;;;23.00;5.60;;;;;;4968066;28;34073;-77
2022/04/27 12:17:48;;;;;;;6.10;4.15;;;23.10;4.20;;;;;;4938226;28;35660;-77
2022/04/27 12:20:34;;;;;;;5.32;3.85;;;23.20;1.20;;;;;;4985418;28;34094;-77
2022/04/27 12:23:02;;;;;;;4.43;3.83;;;23.20;3.10;;;;;;4969215;28;34250;-77
2022/04/27 12:25:33;;;;;;;4.90;3.13;;;23.10;5.70;;;;;;4944836;28;34180;-77
2022/04/27 12:28:00;;;;;;;6.88;3.35;;;23.10;4.50;;;;;;4948995;28;35681;-76
2022/04/27 12:30:26;;;;;;;3.85;2.92;;;23.00;5.80;;;;;;4938534;28;34119;-77
2022/04/27 12:32:52;;;;;;;3.55;2.97;;;22.90;5.60;;;;;;4956040;28;34101;-77
2022/04/27 12:38:14;;;;;;;4.78;3.83;;;22.80;5.40;;;;;;4985792;28;34229;-78
2022/04/27 12:40:42;;;;;;;5.53;3.20;;;22.60;1.20;;;;;;4984972;28;34167;-77
2022/04/27 12:43:14;;;;;;;3.45;2.88;;;22.60;5.50;;;;;;4984123;28;34329;-77
2022/04/27 12:46:01;;;;;;;3.42;3.13;;;22.70;5.20;;;;;;4986607;28;34911;-76
2022/04/27 12:48:29;;;;;;;3.40;2.78;;;22.70;3.30;;;;;;4985463;28;35278;-78
2022/04/27 12:50:54;;;;;;;4.13;3.08;;;22.70;5.60;;;;;;4968659;28;34273;-77
2022/04/27 12:53:21;;;;;;;6.65;3.58;;;22.80;5.30;;;;;;4985499;28;34127;-77
2022/04/27 12:56:03;;;;;;;4.10;2.95;;;22.70;3.30;;;;;;4984442;28;34217;-77
2022/04/27 12:58:29;;;;;;;6.13;3.60;;;22.60;2.80;;;;;;4969421;28;35664;-79
2022/04/27 13:00:56;;;;;;;3.35;2.97;;;22.60;5.30;;;;;;4967956;28;34159;-78
2022/04/27 13:03:23;;;;;;;5.18;2.65;;;22.60;5.70;;;;;;4967581;28;34271;-77
2022/04/27 13:05:50;;;;;;;5.25;2.60;;;22.50;5.10;;;;;;4968584;28;34076;-77
2022/04/27 13:08:16;;;;;;;3.15;2.38;;;22.50;5.00;;;;;;4968128;28;36282;-78
2022/04/27 13:13:25;;;;;;;2.40;2.10;;;22.70;4.60;;;;;;4969644;28;34101;-77
2022/04/27 13:15:52;;;;;;;2.80;2.50;;;22.60;4.60;;;;;;4966245;28;34264;-77
2022/04/27 13:18:19;;;;;;;3.42;2.78;;;22.60;4.20;;;;;;4983172;28;35639;-77
2022/04/27 13:20:48;;;;;;;2.30;2.10;;;22.60;3.70;;;;;;4979068;28;34183;-77